createdAt,value
2018-06-10T00:00:36.826Z,18.3
2018-06-10T00:01:56.684Z,18.3
2018-06-10T00:03:19.047Z,18.3
2018-06-10T00:04:41.422Z,18.3
2018-06-10T00:06:01.245Z,18.3
2018-06-10T00:07:26.217Z,18.3
2018-06-10T00:08:56.235Z,18.2
2018-06-10T00:10:16.125Z,18.2
2018-06-10T00:11:35.955Z,18.2
2018-06-10T00:12:58.379Z,18.2
2018-06-10T00:14:23.264Z,18.2
2018-06-10T00:15:48.140Z,18.3
2018-06-10T00:17:08.015Z,18.3
2018-06-10T00:18:35.485Z,18.3
2018-06-10T00:19:57.843Z,18.3
2018-06-10T00:21:25.260Z,18.3
2018-06-10T00:22:45.094Z,18.2
2018-06-10T00:24:10.044Z,18.2
2018-06-10T00:25:40.044Z,18.2
2018-06-10T00:27:02.407Z,18.2
2018-06-10T00:28:22.253Z,18.2
2018-06-10T00:29:49.714Z,18.2
2018-06-10T00:31:12.157Z,18.2
2018-06-10T00:32:32.029Z,18.2
2018-06-10T00:33:51.944Z,18.2
2018-06-10T00:35:19.373Z,18.2
2018-06-10T00:36:41.778Z,18.2
2018-06-10T00:38:01.637Z,18.2
2018-06-10T00:39:36.692Z,18.2
2018-06-10T00:40:59.074Z,18.2
2018-06-10T00:42:18.905Z,18.2
2018-06-10T00:43:38.733Z,18.2
2018-06-10T00:45:03.621Z,18.3
2018-06-10T00:46:33.586Z,18.2
2018-06-10T00:47:55.942Z,18.2
2018-06-10T00:49:15.790Z,18.2
2018-06-10T00:50:35.621Z,18.2
2018-06-10T00:51:55.436Z,18.2
2018-06-10T00:53:17.825Z,18.2
2018-06-10T00:54:37.656Z,18.2
2018-06-10T00:56:00.022Z,18.3
2018-06-10T00:57:19.871Z,18.2
2018-06-10T00:58:52.399Z,18.2
2018-06-10T01:00:14.756Z,18.2
2018-06-10T01:01:44.718Z,18.2
2018-06-10T01:03:07.109Z,18.2
2018-06-10T01:04:26.956Z,18.2
2018-06-10T01:05:46.821Z,18.3
2018-06-10T01:07:11.742Z,18.3
2018-06-10T01:08:34.164Z,18.3
2018-06-10T01:09:59.044Z,18.3
2018-06-10T01:11:23.985Z,18.3
2018-06-10T01:12:43.819Z,18.3
2018-06-10T01:14:03.642Z,18.3
2018-06-10T01:15:26.028Z,18.3
2018-06-10T01:16:45.895Z,18.2
2018-06-10T01:18:05.771Z,18.2
2018-06-10T01:19:28.129Z,18.2
2018-06-10T01:20:55.539Z,18.2
2018-06-10T01:22:15.374Z,18.2
2018-06-10T01:23:35.201Z,18.2
2018-06-10T01:24:57.568Z,18.2
2018-06-10T01:26:17.435Z,18.2
2018-06-10T01:27:47.364Z,18.2
2018-06-10T01:29:12.276Z,18.2
2018-06-10T01:30:34.620Z,18.2
2018-06-10T01:31:54.498Z,18.2
2018-06-10T01:33:16.878Z,18.2
2018-06-10T01:34:36.733Z,18.2
2018-06-10T01:35:56.637Z,18.2
2018-06-10T01:37:16.491Z,18.2
2018-06-10T01:38:36.343Z,18.2
2018-06-10T01:39:56.244Z,18.2
2018-06-10T01:41:21.183Z,18.2
2018-06-10T01:42:41.083Z,18.2
2018-06-10T01:44:00.958Z,18.2
2018-06-10T01:45:20.780Z,18.2
2018-06-10T01:46:43.191Z,18.2
2018-06-10T01:48:10.612Z,18.2
2018-06-10T01:49:30.497Z,18.2
2018-06-10T01:50:50.324Z,18.1
2018-06-10T01:52:25.357Z,18.1
2018-06-10T01:53:52.785Z,18.1
2018-06-10T01:55:20.237Z,18.1
2018-06-10T01:56:40.105Z,18.1
2018-06-10T01:57:59.930Z,18.1
2018-06-10T01:59:22.280Z,18.1
2018-06-10T02:00:42.098Z,18.1
2018-06-10T02:02:06.987Z,18.1
2018-06-10T02:03:29.386Z,18.1
2018-06-10T02:04:49.218Z,18.1
2018-06-10T02:06:09.042Z,18.1
2018-06-10T02:07:39.001Z,18.1
2018-06-10T02:08:58.862Z,18.1
2018-06-10T02:10:21.244Z,18.1
2018-06-10T02:11:43.598Z,18.1
2018-06-10T02:13:11.053Z,18.1
2018-06-10T02:14:33.407Z,18.1
2018-06-10T02:15:55.822Z,18.1
2018-06-10T02:17:25.772Z,18.1
2018-06-10T02:18:45.692Z,18.1
2018-06-10T02:20:05.598Z,18.1
2018-06-10T02:21:30.479Z,18.1
2018-06-10T02:22:52.836Z,18
2018-06-10T02:24:17.737Z,18.1
2018-06-10T02:25:47.732Z,18
2018-06-10T02:27:10.083Z,18
2018-06-10T02:28:29.939Z,18
2018-06-10T02:29:59.957Z,18
2018-06-10T02:31:22.375Z,18
2018-06-10T02:32:44.754Z,18
2018-06-10T02:34:07.106Z,18
2018-06-10T02:35:32.013Z,18
2018-06-10T02:36:51.829Z,18
2018-06-10T02:38:19.258Z,18
2018-06-10T02:39:44.193Z,18.1
2018-06-10T02:41:06.626Z,18.1
2018-06-10T02:42:26.515Z,18.1
2018-06-10T02:43:51.433Z,18.1
2018-06-10T02:45:13.822Z,18.1
2018-06-10T02:46:41.264Z,18.1
2018-06-10T02:48:01.166Z,18.1
2018-06-10T02:49:26.106Z,18
2018-06-10T02:50:48.525Z,18
2018-06-10T02:52:10.923Z,18
2018-06-10T02:53:33.323Z,18
2018-06-10T02:54:53.143Z,18.1
2018-06-10T02:56:12.973Z,18.1
2018-06-10T02:57:32.848Z,18
2018-06-10T02:58:52.665Z,18
2018-06-10T03:00:25.157Z,18.1
2018-06-10T03:01:47.519Z,18.2
2018-06-10T03:03:07.359Z,18.3
2018-06-10T03:04:27.216Z,18.3
2018-06-10T03:05:47.043Z,18.3
2018-06-10T03:07:06.913Z,18.3
2018-06-10T03:08:26.743Z,18.3
2018-06-10T03:09:46.597Z,18.1
2018-06-10T03:11:06.488Z,18
2018-06-10T03:12:26.350Z,18.1
2018-06-10T03:13:46.198Z,18.1
2018-06-10T03:15:06.057Z,18.1
2018-06-10T03:16:25.962Z,18.1
2018-06-10T03:17:53.372Z,18.1
2018-06-10T03:19:15.748Z,18.1
2018-06-10T03:20:35.642Z,18.1
2018-06-10T03:21:55.463Z,18.1
2018-06-10T03:23:15.330Z,18.1
2018-06-10T03:24:35.156Z,18.1
2018-06-10T03:25:57.526Z,18.1
2018-06-10T03:27:25.006Z,18.1
2018-06-10T03:28:49.940Z,18.1
2018-06-10T03:30:14.848Z,18.1
2018-06-10T03:31:39.746Z,18
2018-06-10T03:32:59.587Z,18.1
2018-06-10T03:34:19.412Z,18.1
2018-06-10T03:35:44.292Z,18
2018-06-10T03:37:04.117Z,18.1
2018-06-10T03:38:26.505Z,18
2018-06-10T03:39:46.361Z,18.1
2018-06-10T03:41:08.728Z,18.1
2018-06-10T03:42:28.545Z,18.1
2018-06-10T03:43:56.005Z,18.1
2018-06-10T03:45:15.863Z,18.1
2018-06-10T03:46:35.717Z,18.1
2018-06-10T03:47:58.075Z,18.1
2018-06-10T03:49:17.950Z,18.1
2018-06-10T03:50:37.792Z,18.1
2018-06-10T03:51:57.620Z,18.1
2018-06-10T03:53:25.049Z,18.1
2018-06-10T03:54:44.917Z,18.1
2018-06-10T03:56:04.738Z,18.1
2018-06-10T03:57:29.678Z,18.1
2018-06-10T03:58:49.528Z,18.1
2018-06-10T04:00:14.410Z,18.1
2018-06-10T04:01:34.233Z,18.1
2018-06-10T04:02:54.073Z,18.1
2018-06-10T04:04:13.893Z,18.1
2018-06-10T04:05:36.284Z,18.1
2018-06-10T04:06:56.162Z,18.1
2018-06-10T04:08:16.021Z,18.1
2018-06-10T04:09:35.882Z,18.1
2018-06-10T04:10:55.733Z,18.1
2018-06-10T04:12:25.710Z,18.1
2018-06-10T04:13:45.588Z,18.1
2018-06-10T04:15:10.499Z,18.1
2018-06-10T04:16:30.394Z,18.1
2018-06-10T04:17:50.234Z,18.2
2018-06-10T04:19:10.113Z,18.2
2018-06-10T04:20:29.821Z,18.2
2018-06-10T04:21:49.654Z,18.1
2018-06-10T04:23:09.519Z,18.2
2018-06-10T04:24:34.403Z,18.2
2018-06-10T04:25:54.225Z,18.2
2018-06-10T04:27:14.073Z,18.2
2018-06-10T04:28:36.427Z,18.2
2018-06-10T04:29:56.301Z,18.2
2018-06-10T04:31:21.218Z,18.2
2018-06-10T04:32:48.734Z,18.2
2018-06-10T04:34:18.709Z,18.2
2018-06-10T04:35:41.088Z,18.2
2018-06-10T04:37:00.944Z,18.3
2018-06-10T04:38:23.298Z,18.3
2018-06-10T04:39:43.124Z,18.3
2018-06-10T04:41:10.609Z,18.3
2018-06-10T04:42:30.464Z,18.3
2018-06-10T04:43:55.371Z,18.3
2018-06-10T04:45:27.856Z,18.3
2018-06-10T04:46:57.805Z,18.3
2018-06-10T04:48:25.242Z,18.3
2018-06-10T04:49:45.094Z,18.3
2018-06-10T04:51:07.513Z,18.3
2018-06-10T04:52:27.338Z,18.3
2018-06-10T04:53:47.179Z,18.3
2018-06-10T04:55:07.014Z,18.3
2018-06-10T04:56:29.401Z,18.3
2018-06-10T04:57:49.237Z,18.3
2018-06-10T04:59:09.074Z,18.3
2018-06-10T05:00:31.482Z,18.3
2018-06-10T05:02:01.440Z,18.4
2018-06-10T05:03:23.857Z,18.4
2018-06-10T05:04:43.688Z,18.4
2018-06-10T05:06:03.517Z,18.4
2018-06-10T05:07:23.387Z,18.4
2018-06-10T05:08:45.800Z,18.4
2018-06-10T05:10:13.217Z,18.4
2018-06-10T05:11:35.605Z,18.4
2018-06-10T05:12:55.465Z,18.4
2018-06-10T05:14:15.317Z,18.4
2018-06-10T05:15:35.178Z,18.5
2018-06-10T05:16:55.036Z,18.5
2018-06-10T05:18:14.884Z,18.5
2018-06-10T05:19:34.831Z,18.5
2018-06-10T05:20:54.663Z,18.5
2018-06-10T05:22:19.638Z,18.5
2018-06-10T05:23:39.460Z,18.5
2018-06-10T05:25:01.821Z,18.5
2018-06-10T05:26:24.182Z,18.5
2018-06-10T05:27:44.068Z,18.5
2018-06-10T05:29:06.425Z,18.5
2018-06-10T05:30:26.303Z,18.5
2018-06-10T05:31:46.155Z,18.5
2018-06-10T05:33:11.052Z,18.5
2018-06-10T05:34:30.934Z,18.5
2018-06-10T05:35:50.841Z,18.6
2018-06-10T05:37:18.255Z,18.6
2018-06-10T05:38:38.103Z,18.6
2018-06-10T05:39:57.932Z,18.6
2018-06-10T05:41:17.754Z,18.6
2018-06-10T05:42:42.640Z,18.6
2018-06-10T05:44:05.003Z,18.6
2018-06-10T05:45:24.825Z,18.6
2018-06-10T05:46:44.702Z,18.6
2018-06-10T05:48:04.524Z,18.6
2018-06-10T05:49:24.401Z,18.6
2018-06-10T05:50:44.226Z,18.6
2018-06-10T05:52:04.074Z,18.6
2018-06-10T05:53:31.490Z,18.7
2018-06-10T05:54:53.868Z,18.7
2018-06-10T05:56:18.787Z,18.7
2018-06-10T05:57:38.660Z,18.7
2018-06-10T05:58:58.528Z,18.7
2018-06-10T06:00:18.349Z,18.7
2018-06-10T06:01:38.261Z,18.7
2018-06-10T06:02:58.129Z,18.7
2018-06-10T06:04:20.518Z,18.8
2018-06-10T06:05:40.371Z,18.8
2018-06-10T06:07:00.253Z,18.8
2018-06-10T06:08:25.193Z,18.8
2018-06-10T06:09:45.056Z,18.8
2018-06-10T06:11:07.440Z,18.8
2018-06-10T06:12:27.260Z,18.8
2018-06-10T06:13:49.612Z,18.8
2018-06-10T06:15:27.215Z,18.8
2018-06-10T06:16:47.077Z,18.8
2018-06-10T06:18:06.916Z,18.8
2018-06-10T06:19:31.801Z,18.8
2018-06-10T06:20:54.163Z,18.8
2018-06-10T06:22:16.533Z,18.8
2018-06-10T06:23:38.936Z,18.8
2018-06-10T06:25:01.338Z,18.8
2018-06-10T06:26:21.198Z,18.8
2018-06-10T06:27:43.559Z,18.9
2018-06-10T06:29:03.428Z,18.9
2018-06-10T06:30:23.252Z,18.9
2018-06-10T06:31:50.689Z,18.9
2018-06-10T06:33:15.666Z,18.9
2018-06-10T06:34:35.524Z,18.9
2018-06-10T06:35:57.939Z,19
2018-06-10T06:37:17.771Z,19
2018-06-10T06:38:40.201Z,19
2018-06-10T06:40:05.169Z,19
2018-06-10T06:41:27.531Z,19
2018-06-10T06:42:49.936Z,19
2018-06-10T06:44:09.799Z,19
2018-06-10T06:45:29.614Z,19
2018-06-10T06:46:49.511Z,19
2018-06-10T06:48:11.863Z,19
2018-06-10T06:49:31.682Z,19
2018-06-10T06:50:51.541Z,19.1
2018-06-10T06:52:11.411Z,19.1
2018-06-10T06:53:36.317Z,19.1
2018-06-10T06:55:11.328Z,19.1
2018-06-10T06:56:33.705Z,19.1
2018-06-10T06:58:01.148Z,19.2
2018-06-10T06:59:23.500Z,19.2
2018-06-10T07:00:43.380Z,19.2
2018-06-10T07:02:03.202Z,19.2
2018-06-10T07:03:23.069Z,19.3
2018-06-10T07:04:42.900Z,19.3
2018-06-10T07:06:02.741Z,19.3
2018-06-10T07:07:22.565Z,19.3
2018-06-10T07:08:42.398Z,19.3
2018-06-10T07:10:02.231Z,19.3
2018-06-10T07:11:22.057Z,19.4
2018-06-10T07:12:46.943Z,19.4
2018-06-10T07:14:11.855Z,19.4
2018-06-10T07:15:41.858Z,19.4
2018-06-10T07:17:04.236Z,19.4
2018-06-10T07:18:24.056Z,19.5
2018-06-10T07:19:46.477Z,19.4
2018-06-10T07:21:06.342Z,19.5
2018-06-10T07:22:31.240Z,19.5
2018-06-10T07:23:51.067Z,19.5
2018-06-10T07:25:10.911Z,19.5
2018-06-10T07:26:33.293Z,19.5
2018-06-10T07:27:53.176Z,19.5
2018-06-10T07:29:20.596Z,19.6
2018-06-10T07:30:40.444Z,19.6
2018-06-10T07:32:00.340Z,19.6
2018-06-10T07:33:30.402Z,19.6
2018-06-10T07:34:50.285Z,19.6
2018-06-10T07:36:10.140Z,19.6
2018-06-10T07:37:30.019Z,19.6
2018-06-10T07:38:49.872Z,19.7
2018-06-10T07:40:09.726Z,19.7
2018-06-10T07:41:32.121Z,19.7
2018-06-10T07:42:51.947Z,19.7
2018-06-10T07:44:11.780Z,19.7
2018-06-10T07:45:31.646Z,19.7
2018-06-10T07:46:59.073Z,19.7
2018-06-10T07:48:26.561Z,19.7
2018-06-10T07:49:54.053Z,19.8
2018-06-10T07:51:21.477Z,19.8
2018-06-10T07:52:41.324Z,19.8
2018-06-10T07:54:01.193Z,19.8
2018-06-10T07:55:28.614Z,19.9
2018-06-10T07:56:58.602Z,19.9
2018-06-10T07:58:18.467Z,19.9
2018-06-10T07:59:38.344Z,19.9
2018-06-10T08:00:58.174Z,19.9
2018-06-10T08:02:18.051Z,19.9
2018-06-10T08:03:37.882Z,19.9
2018-06-10T08:04:57.721Z,19.9
2018-06-10T08:06:17.550Z,20
2018-06-10T08:07:47.513Z,20
2018-06-10T08:09:14.990Z,19.9
2018-06-10T08:10:52.533Z,19.9
2018-06-10T08:12:17.434Z,20
2018-06-10T08:13:39.845Z,20
2018-06-10T08:14:59.778Z,20
2018-06-10T08:16:19.638Z,20
2018-06-10T08:17:39.513Z,20
2018-06-10T08:18:59.346Z,20
2018-06-10T08:20:19.171Z,20
2018-06-10T08:21:39.071Z,20
2018-06-10T08:23:03.952Z,20
2018-06-10T08:24:23.815Z,20.1
2018-06-10T08:25:48.704Z,20.1
2018-06-10T08:27:08.576Z,20.1
2018-06-10T08:28:36.043Z,20.1
2018-06-10T08:30:00.927Z,20.1
2018-06-10T08:31:30.873Z,20.1
2018-06-10T08:32:50.714Z,20.1
2018-06-10T08:34:18.130Z,20.1
2018-06-10T08:35:43.064Z,20.2
2018-06-10T08:37:20.687Z,20.2
2018-06-10T08:38:43.041Z,20.2
2018-06-10T08:40:02.862Z,20.2
2018-06-10T08:41:25.263Z,20.3
2018-06-10T08:42:45.171Z,20.3
2018-06-10T08:44:05.119Z,20.3
2018-06-10T08:45:24.992Z,20.3
2018-06-10T08:46:44.844Z,20.3
2018-06-10T08:48:14.817Z,20.3
2018-06-10T08:49:37.190Z,20.3
2018-06-10T08:51:04.644Z,20.4
2018-06-10T08:52:26.994Z,20.4
2018-06-10T08:53:46.819Z,20.4
2018-06-10T08:55:16.765Z,20.5
2018-06-10T08:56:36.588Z,20.5
2018-06-10T08:57:58.941Z,20.5
2018-06-10T08:59:21.335Z,20.5
2018-06-10T09:00:41.165Z,20.6
2018-06-10T09:02:00.992Z,20.6
2018-06-10T09:03:20.866Z,20.6
2018-06-10T09:04:40.725Z,20.6
2018-06-10T09:06:08.187Z,20.7
2018-06-10T09:07:28.021Z,20.7
2018-06-10T09:08:50.500Z,20.7
2018-06-10T09:10:12.872Z,20.7
2018-06-10T09:11:40.337Z,20.7
2018-06-10T09:13:00.170Z,20.7
2018-06-10T09:14:35.226Z,20.8
2018-06-10T09:15:57.593Z,20.8
2018-06-10T09:17:32.595Z,20.8
2018-06-10T09:18:52.425Z,20.8
2018-06-10T09:20:17.311Z,20.9
2018-06-10T09:21:37.157Z,20.9
2018-06-10T09:23:02.063Z,20.9
2018-06-10T09:24:24.488Z,20.9
2018-06-10T09:25:49.419Z,20.9
2018-06-10T09:27:09.319Z,20.9
2018-06-10T09:28:31.686Z,21
2018-06-10T09:29:56.599Z,21
2018-06-10T09:31:16.431Z,21
2018-06-10T09:32:36.255Z,21
2018-06-10T09:34:03.712Z,21.1
2018-06-10T09:35:26.171Z,21.1
2018-06-10T09:36:48.558Z,21.1
2018-06-10T09:38:08.380Z,21.1
2018-06-10T09:39:28.242Z,21.2
2018-06-10T09:40:53.154Z,21.2
2018-06-10T09:42:15.508Z,21.2
2018-06-10T09:43:35.338Z,21.3
2018-06-10T09:44:57.686Z,21.3
2018-06-10T09:46:25.151Z,21.3
2018-06-10T09:47:45.017Z,21.4
2018-06-10T09:49:04.910Z,21.4
2018-06-10T09:50:27.264Z,21.4
2018-06-10T09:51:57.234Z,21.5
2018-06-10T09:53:19.641Z,21.5
2018-06-10T09:54:41.993Z,21.5
2018-06-10T09:56:06.934Z,21.6
2018-06-10T09:57:26.772Z,21.6
2018-06-10T09:58:46.646Z,21.6
2018-06-10T10:00:09.018Z,21.7
2018-06-10T10:01:28.860Z,21.7
2018-06-10T10:02:48.748Z,21.7
2018-06-10T10:04:08.632Z,21.7
2018-06-10T10:05:30.991Z,21.7
2018-06-10T10:06:50.830Z,21.7
2018-06-10T10:08:13.231Z,21.7
2018-06-10T10:09:38.135Z,21.7
2018-06-10T10:11:25.807Z,21.7
2018-06-10T10:12:50.712Z,21.7
2018-06-10T10:14:13.119Z,21.7
2018-06-10T10:15:45.603Z,21.7
2018-06-10T10:17:05.449Z,21.7
2018-06-10T10:18:30.366Z,21.6
2018-06-10T10:19:50.182Z,21.6
2018-06-10T10:21:12.535Z,21.6
2018-06-10T10:22:32.395Z,21.6
2018-06-10T10:23:52.219Z,21.6
2018-06-10T10:25:32.319Z,21.6
2018-06-10T10:26:54.761Z,21.6
2018-06-10T10:28:17.121Z,21.6
2018-06-10T10:29:39.561Z,21.6
2018-06-10T10:30:59.414Z,21.6
2018-06-10T10:32:19.321Z,21.5
2018-06-10T10:33:39.180Z,21.5
2018-06-10T10:35:01.562Z,21.5
2018-06-10T10:36:21.395Z,21.5
2018-06-10T10:37:41.226Z,21.5
2018-06-10T10:39:01.055Z,21.5
2018-06-10T10:40:20.880Z,21.5
2018-06-10T10:41:40.723Z,21.5
2018-06-10T10:43:00.586Z,21.5
2018-06-10T10:44:20.467Z,21.5
2018-06-10T10:45:40.327Z,21.5
2018-06-10T10:47:15.332Z,21.5
2018-06-10T10:48:35.205Z,21.6
2018-06-10T10:49:55.032Z,21.6
2018-06-10T10:51:27.548Z,21.7
2018-06-10T10:52:52.452Z,21.7
2018-06-10T10:54:17.334Z,21.7
2018-06-10T10:55:39.717Z,21.7
2018-06-10T10:57:02.120Z,21.7
2018-06-10T10:58:24.538Z,21.7
2018-06-10T10:59:49.497Z,21.7
2018-06-10T11:01:09.344Z,21.7
2018-06-10T11:02:31.753Z,21.7
2018-06-10T11:03:54.141Z,21.7
2018-06-10T11:05:13.996Z,21.8
2018-06-10T11:06:41.453Z,21.8
2018-06-10T11:08:03.841Z,21.8
2018-06-10T11:09:23.724Z,21.8
2018-06-10T11:10:58.770Z,21.9
2018-06-10T11:12:23.679Z,21.9
2018-06-10T11:13:43.573Z,21.9
2018-06-10T11:15:05.971Z,21.9
2018-06-10T11:16:25.810Z,22
2018-06-10T11:17:50.742Z,22
2018-06-10T11:19:10.562Z,22
2018-06-10T11:20:30.413Z,22
2018-06-10T11:21:50.246Z,22.1
2018-06-10T11:23:10.082Z,22.1
2018-06-10T11:24:29.921Z,22.1
2018-06-10T11:25:52.363Z,22.1
2018-06-10T11:27:24.936Z,22.1
2018-06-10T11:28:57.450Z,22.2
2018-06-10T11:30:17.299Z,22.2
2018-06-10T11:31:37.128Z,22.2
2018-06-10T11:33:02.075Z,22.2
2018-06-10T11:34:26.968Z,22.2
2018-06-10T11:35:46.824Z,22.2
2018-06-10T11:37:09.205Z,22.3
2018-06-10T11:38:29.061Z,22.3
2018-06-10T11:39:54.029Z,22.3
2018-06-10T11:41:13.893Z,22.3
2018-06-10T11:42:38.827Z,22.4
2018-06-10T11:43:58.694Z,22.4
2018-06-10T11:45:18.581Z,22.4
2018-06-10T11:46:38.424Z,22.4
2018-06-10T11:47:58.301Z,22.5
2018-06-10T11:49:18.125Z,22.5
2018-06-10T11:50:45.562Z,22.5
2018-06-10T11:52:15.610Z,22.6
2018-06-10T11:53:43.163Z,22.6
2018-06-10T11:55:03.020Z,22.6
2018-06-10T11:56:22.841Z,22.6
2018-06-10T11:57:42.682Z,22.6
2018-06-10T11:59:05.090Z,22.7
2018-06-10T12:00:24.934Z,22.7
2018-06-10T12:01:47.284Z,22.7
2018-06-10T12:03:07.112Z,22.7
2018-06-10T12:04:26.987Z,22.8
2018-06-10T12:05:49.383Z,22.8
2018-06-10T12:07:11.748Z,22.8
2018-06-10T12:08:31.570Z,22.9
2018-06-10T12:09:51.431Z,22.9
2018-06-10T12:11:13.818Z,22.9
2018-06-10T12:12:33.723Z,23
2018-06-10T12:13:53.662Z,23
2018-06-10T12:15:13.513Z,23.1
2018-06-10T12:16:35.912Z,23.1
2018-06-10T12:18:00.821Z,23.1
2018-06-10T12:19:20.644Z,23.1
2018-06-10T12:20:40.477Z,23.1
2018-06-10T12:22:00.305Z,23.1
2018-06-10T12:23:20.126Z,23.1
2018-06-10T12:24:42.478Z,23.1
2018-06-10T12:26:02.314Z,23.2
2018-06-10T12:27:24.668Z,23.2
2018-06-10T12:28:47.024Z,23.2
2018-06-10T12:30:09.442Z,23.2
2018-06-10T12:31:29.302Z,23.3
2018-06-10T12:32:49.146Z,23.3
2018-06-10T12:34:09.013Z,23.3
2018-06-10T12:35:33.933Z,23.4
2018-06-10T12:36:53.803Z,23.4
2018-06-10T12:38:18.739Z,23.4
2018-06-10T12:39:46.228Z,23.4
2018-06-10T12:41:11.106Z,23.4
2018-06-10T12:42:33.498Z,23.4
2018-06-10T12:43:53.387Z,23.5
2018-06-10T12:45:18.279Z,23.6
2018-06-10T12:46:48.254Z,23.7
2018-06-10T12:48:10.619Z,23.9
2018-06-10T12:49:30.453Z,24
2018-06-10T12:50:55.378Z,24.1
2018-06-10T12:52:15.243Z,24.2
2018-06-10T12:53:35.117Z,24.2
2018-06-10T12:54:54.937Z,24.3
2018-06-10T12:56:14.763Z,24.3
2018-06-10T12:57:47.274Z,24.3
2018-06-10T12:59:12.179Z,24.3
2018-06-10T13:00:32.001Z,24.4
2018-06-10T13:01:56.931Z,24.4
2018-06-10T13:03:16.759Z,24.3
2018-06-10T13:04:36.582Z,24.3
2018-06-10T13:05:56.405Z,24.3
2018-06-10T13:07:21.339Z,24.3
2018-06-10T13:08:43.772Z,24.3
2018-06-10T13:10:03.643Z,24.4
2018-06-10T13:11:23.523Z,24.4
2018-06-10T13:12:45.871Z,24.5
2018-06-10T13:14:05.706Z,24.6
2018-06-10T13:15:28.089Z,24.8
2018-06-10T13:16:47.985Z,24.9
2018-06-10T13:18:07.871Z,24.8
2018-06-10T13:19:40.362Z,24.9
2018-06-10T13:21:02.720Z,24.9
2018-06-10T13:22:25.137Z,24.9
2018-06-10T13:23:44.964Z,25
2018-06-10T13:25:04.837Z,24.9
2018-06-10T13:26:24.680Z,25
2018-06-10T13:27:47.091Z,25.1
2018-06-10T13:29:14.537Z,25
2018-06-10T13:30:47.037Z,25
2018-06-10T13:32:11.942Z,25.1
2018-06-10T13:33:31.766Z,25.1
2018-06-10T13:34:51.607Z,25.2
2018-06-10T13:36:14.042Z,25.3
2018-06-10T13:37:33.892Z,25.4
2018-06-10T13:38:58.841Z,25.5
2018-06-10T13:40:28.866Z,25.4
2018-06-10T13:41:51.221Z,25.5
2018-06-10T13:43:11.043Z,25.5
2018-06-10T13:44:30.882Z,25.5
2018-06-10T13:45:55.808Z,25.5
2018-06-10T13:47:20.746Z,25.6
2018-06-10T13:48:40.587Z,25.6
2018-06-10T13:50:10.521Z,25.6
2018-06-10T13:51:30.348Z,25.7
2018-06-10T13:52:50.231Z,25.7
2018-06-10T13:54:12.580Z,25.7
2018-06-10T13:55:42.523Z,25.8
2018-06-10T13:57:10.034Z,25.8
2018-06-10T13:58:34.937Z,25.8
2018-06-10T13:59:54.762Z,25.8
2018-06-10T14:01:14.649Z,25.8
2018-06-10T14:02:39.538Z,25.8
2018-06-10T14:03:59.427Z,25.8
2018-06-10T14:05:19.299Z,25.7
2018-06-10T14:06:41.689Z,25.8
2018-06-10T14:08:01.516Z,25.8
2018-06-10T14:09:23.903Z,26.7
2018-06-10T14:10:46.311Z,26.7
2018-06-10T14:12:06.142Z,26.7
2018-06-10T14:13:25.980Z,26.7
2018-06-10T14:14:48.399Z,26.7
2018-06-10T14:16:08.301Z,26.8
2018-06-10T14:17:28.163Z,26.7
2018-06-10T14:18:48.041Z,26.7
2018-06-10T14:20:10.444Z,26.6
2018-06-10T14:21:30.285Z,26.7
2018-06-10T14:23:02.767Z,26.6
2018-06-10T14:24:30.275Z,26.5
2018-06-10T14:25:55.165Z,26.6
2018-06-10T14:27:22.597Z,26.4
2018-06-10T14:28:47.546Z,26.4
2018-06-10T14:30:07.369Z,26.4
2018-06-10T14:31:27.189Z,26.3
2018-06-10T14:32:49.558Z,26.3
2018-06-10T14:34:14.490Z,26.3
2018-06-10T14:35:41.903Z,26.3
2018-06-10T14:37:11.874Z,26.3
2018-06-10T14:38:31.701Z,26.3
2018-06-10T14:39:51.551Z,26.2
2018-06-10T14:41:21.541Z,25.9
2018-06-10T14:42:43.956Z,25.9
2018-06-10T14:44:03.802Z,25.8
2018-06-10T14:45:23.644Z,25.8
2018-06-10T14:46:51.056Z,25.8
2018-06-10T14:48:13.448Z,25.9
2018-06-10T14:49:33.324Z,25.8
2018-06-10T14:50:58.235Z,25.7
2018-06-10T14:52:18.126Z,25.7
2018-06-10T14:53:37.982Z,25.6
2018-06-10T14:55:00.405Z,25.5
2018-06-10T14:56:30.409Z,25.6
2018-06-10T14:57:57.860Z,25.5
2018-06-10T14:59:17.706Z,25.5
2018-06-10T15:00:42.612Z,24.5
2018-06-10T15:02:02.524Z,24.6
2018-06-10T15:03:22.366Z,24.7
2018-06-10T15:04:44.739Z,24.7
2018-06-10T15:06:04.610Z,24.7
2018-06-10T15:07:24.450Z,24.6
2018-06-10T15:08:49.371Z,24.5
2018-06-10T15:10:09.205Z,24.5
2018-06-10T15:11:31.557Z,24.5
2018-06-10T15:12:51.385Z,23.9
2018-06-10T15:14:13.749Z,24.5
2018-06-10T15:15:38.695Z,24.2
2018-06-10T15:16:58.605Z,23.7
2018-06-10T15:18:18.464Z,23.2
2018-06-10T15:19:48.453Z,23.2
2018-06-10T15:21:08.307Z,22.9
2018-06-10T15:22:28.169Z,22.9
2018-06-10T15:23:50.538Z,23
2018-06-10T15:25:12.925Z,22.9
2018-06-10T15:26:37.845Z,22.8
2018-06-10T15:28:00.212Z,23
2018-06-10T15:29:27.730Z,23
2018-06-10T15:30:47.555Z,22.9
2018-06-10T15:32:09.935Z,22.7
2018-06-10T15:33:32.294Z,22.7
2018-06-10T15:34:59.708Z,22.7
2018-06-10T15:36:19.562Z,23
2018-06-10T15:37:46.977Z,24.1
2018-06-10T15:39:06.806Z,24
2018-06-10T15:40:26.668Z,24
2018-06-10T15:41:46.496Z,23.1
2018-06-10T15:43:13.956Z,22.7
2018-06-10T15:44:38.854Z,22.6
2018-06-10T15:46:06.291Z,22.4
2018-06-10T15:47:26.122Z,22.7
2018-06-10T15:49:01.149Z,23.5
2018-06-10T15:50:21.050Z,23.5
2018-06-10T15:51:40.897Z,23.5
2018-06-10T15:53:05.834Z,23.5
2018-06-10T15:54:25.671Z,23.4
2018-06-10T15:55:45.493Z,23.5
2018-06-10T15:57:05.312Z,23.5
2018-06-10T15:58:25.193Z,22.9
2018-06-10T15:59:45.079Z,22.8
2018-06-10T16:01:04.923Z,23
2018-06-10T16:02:24.793Z,23.3
2018-06-10T16:03:49.678Z,23.4
2018-06-10T16:05:09.552Z,23
2018-06-10T16:06:29.426Z,23
2018-06-10T16:07:59.369Z,22.9
2018-06-10T16:09:21.727Z,22.9
2018-06-10T16:10:44.081Z,23
2018-06-10T16:12:03.933Z,22.8
2018-06-10T16:13:23.783Z,22.8
2018-06-10T16:14:43.616Z,22.8
2018-06-10T16:16:05.977Z,22.9
2018-06-10T16:17:25.845Z,22.9
2018-06-10T16:18:53.334Z,22.4
2018-06-10T16:20:13.190Z,22.6
2018-06-10T16:21:40.608Z,23.2
2018-06-10T16:23:00.424Z,23.4
2018-06-10T16:24:20.258Z,23.4
2018-06-10T16:25:40.116Z,23.7
2018-06-10T16:26:59.951Z,23.7
2018-06-10T16:28:32.452Z,23.7
2018-06-10T16:29:52.273Z,23.7
2018-06-10T16:31:12.159Z,23.6
2018-06-10T16:32:31.986Z,23.5
2018-06-10T16:33:51.804Z,23.1
2018-06-10T16:35:34.417Z,23.8
2018-06-10T16:36:54.240Z,23.8
2018-06-10T16:38:29.292Z,23.8
2018-06-10T16:39:49.137Z,23.8
2018-06-10T16:41:11.549Z,23.8
2018-06-10T16:42:33.902Z,23.8
2018-06-10T16:43:53.753Z,23.7
2018-06-10T16:45:21.238Z,23.6
2018-06-10T16:46:46.121Z,23.6
2018-06-10T16:48:05.984Z,23.6
2018-06-10T16:49:30.881Z,23.6
2018-06-10T16:50:50.765Z,23.6
2018-06-10T16:52:15.656Z,23.6
2018-06-10T16:53:35.488Z,23.6
2018-06-10T16:55:00.372Z,23.5
2018-06-10T16:56:20.198Z,23.6
2018-06-10T16:57:42.580Z,23.5
2018-06-10T16:59:02.426Z,23.5
2018-06-10T17:00:22.326Z,23.5
2018-06-10T17:01:42.223Z,23.5
2018-06-10T17:03:02.059Z,23.4
2018-06-10T17:04:21.929Z,23.4
2018-06-10T17:05:41.767Z,23.4
2018-06-10T17:07:04.151Z,23.5
2018-06-10T17:08:26.543Z,23.4
2018-06-10T17:09:46.386Z,23.4
2018-06-10T17:11:06.235Z,23.4
2018-06-10T17:12:26.066Z,23.3
2018-06-10T17:13:45.938Z,23.3
2018-06-10T17:15:10.832Z,23.3
2018-06-10T17:16:38.276Z,23.2
2018-06-10T17:18:00.651Z,23.2
2018-06-10T17:19:20.471Z,23.1
2018-06-10T17:20:45.419Z,23.1
2018-06-10T17:22:05.241Z,23.1
2018-06-10T17:23:25.066Z,23
2018-06-10T17:24:47.457Z,23.1
2018-06-10T17:26:14.876Z,23
2018-06-10T17:27:39.821Z,23
2018-06-10T17:28:59.636Z,23
2018-06-10T17:30:24.568Z,22.9
2018-06-10T17:31:51.985Z,22.9
2018-06-10T17:33:24.504Z,22.9
2018-06-10T17:34:59.502Z,22.9
2018-06-10T17:36:29.440Z,22.9
2018-06-10T17:37:49.306Z,22.9
2018-06-10T17:39:09.134Z,22.9
2018-06-10T17:40:36.607Z,22.8
2018-06-10T17:41:56.439Z,22.8
2018-06-10T17:43:18.790Z,22.8
2018-06-10T17:44:41.191Z,22.8
2018-06-10T17:46:01.038Z,22.8
2018-06-10T17:47:20.887Z,22.8
2018-06-10T17:48:45.816Z,22.7
2018-06-10T17:50:05.637Z,22.7
2018-06-10T17:51:25.516Z,22.7
2018-06-10T17:52:47.923Z,22.7
2018-06-10T17:54:07.788Z,22.7
2018-06-10T17:55:42.822Z,22.7
2018-06-10T17:57:05.227Z,22.6
2018-06-10T17:58:25.110Z,22.6
2018-06-10T17:59:47.491Z,22.6
2018-06-10T18:01:07.365Z,22.5
2018-06-10T18:02:27.213Z,22.5
2018-06-10T18:03:49.561Z,22.5
2018-06-10T18:05:09.379Z,22.5
2018-06-10T18:06:29.207Z,22.4
2018-06-10T18:07:49.063Z,22.4
2018-06-10T18:09:11.416Z,22.4
2018-06-10T18:10:31.261Z,22.4
2018-06-10T18:11:51.126Z,22.4
2018-06-10T18:13:16.022Z,22.3
2018-06-10T18:14:35.872Z,22.3
2018-06-10T18:16:00.757Z,22.3
2018-06-10T18:17:20.635Z,22.2
2018-06-10T18:18:43.066Z,22.2
2018-06-10T18:20:10.551Z,22.2
2018-06-10T18:22:03.375Z,22.2
2018-06-10T18:23:46.062Z,22.2
2018-06-10T18:25:28.778Z,22.1
2018-06-10T18:26:48.647Z,22.1